TYPHON7 LOXZ-LOXZ
Flight info
| Callsign | TYPHON7 |
|---|---|
| Flight time | 0h 4m |
| Altitude | 8000 |
| Route | DCT XZ |
| Aircraft | EUFI/M-X/0033 |
Departure
| Time | 2026-05-03 20:15 |
|---|---|
| Airport | Hinterstoisser Air Base (LOXZ) |
Arrival
| Time | 2026-05-03 20:20 |
|---|---|
| Airport | Hinterstoisser Air Base (LOXZ) |
| Time | Latitude | Longitude | Altitude | Speed | Heading |
|---|---|---|---|---|---|
| 2026-05-03 20:15 | 47.43968 | 15.26888 | 5081 ft | 502 kts | 238° |
| 2026-05-03 20:15 | 47.42192 | 15.22431 | 5053 ft | 506 kts | 238° |
| 2026-05-03 20:15 | 47.40344 | 15.17802 | 5356 ft | 540 kts | 238° |
| 2026-05-03 20:15 | 47.38422 | 15.12998 | 7005 ft | 555 kts | 239° |
| 2026-05-03 20:16 | 47.36423 | 15.08059 | 7161 ft | 560 kts | 237° |
| 2026-05-03 20:16 | 47.34309 | 15.03322 | 6292 ft | 525 kts | 234° |
| 2026-05-03 20:16 | 47.32272 | 14.99297 | 5091 ft | 454 kts | 228° |
| 2026-05-03 20:16 | 47.30206 | 14.96251 | 4993 ft | 380 kts | 220° |
| 2026-05-03 20:17 | 47.28774 | 14.94238 | 5011 ft | 222 kts | 221° |
| 2026-05-03 20:17 | 47.27567 | 14.92581 | 5072 ft | 231 kts | 218° |
| 2026-05-03 20:17 | 47.26352 | 14.91036 | 5066 ft | 234 kts | 219° |
| 2026-05-03 20:17 | 47.25147 | 14.89438 | 4432 ft | 235 kts | 221° |
| 2026-05-03 20:18 | 47.23944 | 14.87776 | 4104 ft | 242 kts | 223° |
| 2026-05-03 20:18 | 47.22742 | 14.86097 | 3590 ft | 224 kts | 222° |
| 2026-05-03 20:18 | 47.21828 | 14.84475 | 2920 ft | 196 kts | 237° |
| 2026-05-03 20:18 | 47.21227 | 14.82750 | 2650 ft | 193 kts | 253° |
| 2026-05-03 20:19 | 47.21014 | 14.80749 | 2528 ft | 199 kts | 259° |
| 2026-05-03 20:19 | 47.20794 | 14.78776 | 2414 ft | 196 kts | 259° |
| 2026-05-03 20:19 | 47.20549 | 14.76737 | 2384 ft | 202 kts | 258° |
| 2026-05-03 20:19 | 47.20322 | 14.74918 | 2227 ft | 161 kts | 258° |
| 2026-05-03 20:20 | 47.20194 | 14.73856 | 2240 ft | 44 kts | 264° |
| 2026-05-03 20:20 | 47.20155 | 14.73484 | 2253 ft | 31 kts | 262° |
| 2026-05-03 20:20 | 47.20124 | 14.73206 | 2259 ft | 25 kts | 257° |
| 2026-05-03 20:20 | 47.20101 | 14.73021 | 2265 ft | 10 kts | 261° |
| 2026-05-03 20:21 | 47.20090 | 14.72929 | 2266 ft | 13 kts | 257° |
| 2026-05-03 20:21 | 47.20040 | 14.72764 | 2266 ft | 19 kts | 239° |
| 2026-05-03 20:21 | 47.20007 | 14.72696 | 2268 ft | 0 kts | 231° |